SBBE/BEL METAR and TAF weather

Enter ICAO airport designator
Station Type Date Time Source
SBBE METAR 2021/02/25 02:00 UTC NOAA

SBBE 250200Z 05004KT CAVOK 25/24 Q1012


Station Type Date Time Source
SBBE Decoded METAR 2021/02/25 02:00 UTC NOAA

Belem Aeroporto , Brazil (SBBE) 01-23S 048-29W 16M
Feb 24, 2021 - 09:00 PM EST / 2021.02.25 0200 UTC
Wind: from the NE (050 degrees) at 5 MPH (4 KT):0
Visibility: greater than 7 mile(s):0
Temperature: 77 F (25 C)
Dew Point: 75 F (24 C)
Relative Humidity: 94%
Pressure (altimeter): 29.88 in. Hg (1012 hPa)
ob: SBBE 250200Z 05004KT CAVOK 25/24 Q1012
cycle: 2

Station Type Date Time Source
SBBE TAF 2021/02/25 00:00 UTC NOAA

TAF SBBE 242100Z 2500/2524 07007KT 7000 SCT015 BKN030 TN23/2509Z TX30/2516Z
BECMG 2503/2505 04005KT BKN015 PROB40 2506/2510 09007KT 5000 RA SCT006 BKN010
BECMG 2511/2513 06010KT 8000 SCT015
BECMG 2515/2517 35012KT 7000 BKN020 FEW030TCU PROB40 2518/2522 05015KT 5000 TSRA BKN015 FEW027CB
BECMG 2522/2524 06007KT 8000 SCT020
RMK PHN

Example: see airport list